Time;durP1;ratioP1;P1;durP2;ratioP2;P2;SDS_P1;SDS_P2;PMS_P1;PMS_P2;Temp;Humidity;BMP_temperature;BMP_pressure;BME280_temperature;BME280_humidity;BME280_pressure;Samples;Min_cycle;Max_cycle;Signal;HPM_P1;HPM_P2
2024/04/02 00:02:48;;;;;;;1.50;0.53;;;;;;;12.03;100.00;98866.28;5138516;56;1138516;-82
2024/04/02 00:07:54;;;;;;;0.67;0.47;;;;;;;11.88;100.00;98855.54;5138498;56;1138734;-80
2024/04/02 00:13:00;;;;;;;0.80;0.80;;;;;;;11.94;100.00;98856.67;5154616;56;1138842;-81
2024/04/02 00:18:06;;;;;;;3.50;0.95;;;;;;;11.90;100.00;98868.13;5023370;57;1138645;-81
2024/04/02 00:23:12;;;;;;;3.60;0.50;;;;;;;11.87;100.00;98882.20;5119466;56;1138766;-80
2024/04/02 00:28:18;;;;;;;0.53;0.53;;;;;;;11.83;100.00;98879.05;5042742;57;1138963;-80
2024/04/02 00:33:23;;;;;;;0.77;0.40;;;;;;;11.80;100.00;98899.73;5119523;56;1138423;-80
2024/04/02 00:38:29;;;;;;;0.77;0.60;;;;;;;11.81;100.00;98914.64;5023199;57;1138890;-82
2024/04/02 00:43:35;;;;;;;1.32;0.68;;;;;;;11.78;100.00;98925.55;5110111;56;1138700;-83
2024/04/02 00:48:41;;;;;;;3.27;0.57;;;;;;;11.74;100.00;98921.08;5062791;57;1138685;-81
2024/04/02 00:53:46;;;;;;;0.73;0.47;;;;;;;11.72;100.00;98931.00;5103514;56;1138670;-82
2024/04/02 00:58:52;;;;;;;3.23;0.63;;;;;;;11.71;100.00;98930.67;4959770;57;1138828;-82
2024/04/02 01:03:59;;;;;;;0.77;0.50;;;;;;;11.68;100.00;98927.02;5147965;56;1139084;-82
2024/04/02 01:09:05;;;;;;;1.30;0.40;;;;;;;11.66;100.00;98932.14;5126603;56;1139152;-81
2024/04/02 01:14:11;;;;;;;0.45;0.40;;;;;;;11.58;100.00;98932.48;5018990;57;1138834;-82
2024/04/02 01:19:17;;;;;;;4.30;0.80;;;;;;;11.56;100.00;98953.50;5128951;56;1139033;-83
2024/04/02 01:24:22;;;;;;;0.83;0.60;;;;;;;11.54;100.00;98957.63;5108953;56;1138818;-83
2024/04/02 01:29:28;;;;;;;0.77;0.77;;;;;;;11.51;100.00;98957.12;5108887;56;1138559;-81
2024/04/02 01:34:34;;;;;;;0.80;0.80;;;;;;;11.50;100.00;98947.02;5108974;56;1138571;-82
2024/04/02 01:39:39;;;;;;;0.93;0.90;;;;;;;11.45;100.00;98933.97;5155474;56;1138735;-81
2024/04/02 01:44:45;;;;;;;0.67;0.67;;;;;;;11.45;100.00;98934.79;5137338;56;1138988;-83
2024/04/02 01:49:51;;;;;;;1.13;1.03;;;;;;;11.42;100.00;98935.11;5139234;56;1139273;-82
2024/04/02 01:54:57;;;;;;;0.73;0.73;;;;;;;11.40;100.00;98934.44;5076492;56;1138804;-81
2024/04/02 02:00:04;;;;;;;1.00;0.60;;;;;;;11.33;100.00;98923.33;5102675;56;1138906;-81
2024/04/02 02:05:11;;;;;;;0.90;0.63;;;;;;;11.33;100.00;98915.39;5129487;56;1138792;-82
2024/04/02 02:10:17;;;;;;;0.80;0.80;;;;;;;11.34;100.00;98923.66;5074993;56;1139052;-81
2024/04/02 02:15:23;;;;;;;1.43;0.83;;;;;;;11.28;100.00;98927.31;5054602;56;1138430;-81
2024/04/02 02:20:28;;;;;;;0.63;0.60;;;;;;;11.24;100.00;98933.91;5043406;56;1138861;-81
2024/04/02 02:25:34;;;;;;;3.63;0.67;;;;;;;11.20;100.00;98940.52;5039947;56;1138737;-80
2024/04/02 02:30:40;;;;;;;1.07;1.07;;;;;;;11.16;100.00;98946.28;5057466;57;1138506;-82
2024/04/02 02:35:54;;;;;;;0.80;0.80;;;;;;;11.12;100.00;98947.61;5114676;56;1138895;-80
2024/04/02 02:41:03;;;;;;;0.80;0.80;;;;;;;11.07;100.00;98953.87;5126429;56;1138919;-81
2024/04/02 02:46:09;;;;;;;1.02;1.02;;;;;;;11.01;100.00;98951.84;5147501;56;1138890;-81
2024/04/02 02:51:14;;;;;;;1.43;1.33;;;;;;;10.91;100.00;98961.25;5097143;56;1138935;-80
2024/04/02 02:56:22;;;;;;;1.80;1.70;;;;;;;10.88;100.00;98972.14;5054555;56;1138728;-81
2024/04/02 03:01:28;;;;;;;1.97;1.87;;;;;;;10.85;100.00;98972.45;5043711;57;1138722;-82
2024/04/02 03:06:33;;;;;;;3.60;1.97;;;;;;;10.79;100.00;98971.78;5066437;56;1138580;-79
2024/04/02 03:11:39;;;;;;;2.80;2.70;;;;;;;10.71;100.00;98977.84;5041841;57;1138558;-81
2024/04/02 03:16:45;;;;;;;2.10;2.00;;;;;;;10.60;100.00;98975.47;5069374;56;1138503;-80
2024/04/02 03:21:50;;;;;;;3.10;2.17;;;;;;;10.50;100.00;98980.05;5111153;56;1138575;-81
2024/04/02 03:26:56;;;;;;;2.10;2.00;;;;;;;10.42;100.00;98974.70;5058168;57;1138625;-82
2024/04/02 03:32:02;;;;;;;2.03;1.90;;;;;;;10.35;100.00;98973.68;5089096;56;1139108;-81
2024/04/02 03:37:08;;;;;;;5.15;2.30;;;;;;;10.26;100.00;98970.63;5143755;56;1138838;-83
2024/04/02 03:42:14;;;;;;;2.27;2.08;;;;;;;10.19;100.00;98976.55;5142908;56;1139051;-82
2024/04/02 03:47:20;;;;;;;2.62;2.42;;;;;;;10.18;100.00;98976.20;5164057;56;1138496;-82
2024/04/02 03:52:26;;;;;;;2.50;2.30;;;;;;;10.17;100.00;98971.87;5139211;56;1138972;-81
2024/04/02 03:57:33;;;;;;;2.63;2.17;;;;;;;10.15;100.00;98967.23;5133447;56;1138436;-81
2024/04/02 04:02:38;;;;;;;2.43;2.13;;;;;;;10.09;100.00;98970.47;5058794;57;1138894;-82
2024/04/02 04:07:44;;;;;;;7.57;3.03;;;;;;;10.03;100.00;98976.39;5078166;57;1138722;-82
2024/04/02 04:12:49;;;;;;;1.77;1.67;;;;;;;9.98;100.00;98981.29;5058850;57;1138304;-82
2024/04/02 04:17:55;;;;;;;3.10;2.20;;;;;;;9.97;100.00;98976.98;5059079;57;1136278;-81
2024/04/02 04:23:02;;;;;;;1.73;1.63;;;;;;;9.88;100.00;98977.42;5071943;57;1257974;-81
2024/04/02 04:28:08;;;;;;;2.95;1.92;;;;;;;9.88;100.00;98977.42;5048051;57;1136909;-81
2024/04/02 04:33:14;;;;;;;2.27;2.07;;;;;;;9.88;100.00;98983.19;4973918;57;1136620;-82
2024/04/02 04:38:21;;;;;;;3.77;1.50;;;;;;;9.85;100.00;98979.53;4990899;57;1136470;-81
2024/04/02 04:43:27;;;;;;;1.70;1.47;;;;;;;9.85;100.00;98982.17;4974396;57;1136925;-82
2024/04/02 04:48:34;;;;;;;2.17;1.67;;;;;;;9.83;100.00;98982.32;4974428;57;1136975;-82
2024/04/02 04:53:39;;;;;;;2.15;1.60;;;;;;;9.84;100.00;98993.71;5092815;56;1136810;-81
2024/04/02 04:58:45;;;;;;;4.13;1.43;;;;;;;9.84;100.00;98985.30;5013148;57;1136616;-81
2024/04/02 05:03:51;;;;;;;3.13;1.43;;;;;;;9.82;100.00;98996.50;5056353;57;1136802;-81
2024/04/02 05:08:56;;;;;;;3.20;1.70;;;;;;;9.83;100.00;99011.37;5055925;57;1136414;-81
2024/04/02 05:14:03;;;;;;;4.03;1.73;;;;;;;9.83;100.00;98988.09;5081814;57;1136678;-81
2024/04/02 05:19:09;;;;;;;4.10;1.73;;;;;;;9.83;100.00;98988.92;5055958;57;1136763;-81
2024/04/02 05:24:14;;;;;;;7.33;1.82;;;;;;;9.82;100.00;98995.67;5098158;56;1136602;-81
2024/04/02 05:29:20;;;;;;;3.20;2.25;;;;;;;9.80;100.00;98984.42;5163896;56;1136713;-81
2024/04/02 05:34:26;;;;;;;2.17;1.97;;;;;;;9.82;100.00;98978.51;5143814;56;1136511;-81
2024/04/02 05:39:31;;;;;;;4.70;1.90;;;;;;;9.86;100.00;98989.95;5143223;56;1136492;-81
2024/04/02 05:44:37;;;;;;;5.17;2.00;;;;;;;9.85;100.00;98983.00;5143850;56;1136845;-81
2024/04/02 05:49:43;;;;;;;5.00;2.40;;;;;;;9.87;100.00;98990.28;5163250;56;1136585;-81
2024/04/02 05:54:48;;;;;;;3.07;1.50;;;;;;;9.87;100.00;98985.00;5133083;56;1136469;-81
2024/04/02 05:59:54;;;;;;;1.43;1.30;;;;;;;9.91;100.00;98992.63;5138199;56;1136335;-81
2024/04/02 06:05:00;;;;;;;2.30;1.57;;;;;;;9.92;100.00;98999.58;5163415;56;1136971;-81
2024/04/02 06:10:06;;;;;;;7.27;3.40;;;;;;;9.94;100.00;99007.66;5144124;56;1136926;-81
2024/04/02 06:15:12;;;;;;;2.87;2.62;;;;;;;9.98;100.00;99010.34;5143595;56;1136759;-81
2024/04/02 06:20:17;;;;;;;5.60;1.90;;;;;;;10.02;100.00;99027.55;5162901;56;1136573;-81
2024/04/02 06:25:23;;;;;;;2.57;1.80;;;;;;;10.01;100.00;99029.02;5138267;56;1139061;-81
2024/04/02 06:30:29;;;;;;;1.67;1.57;;;;;;;10.00;100.00;99032.16;5126448;56;1138954;-81
2024/04/02 06:35:35;;;;;;;6.00;2.30;;;;;;;10.02;100.00;99036.80;5127167;56;1144575;-82
2024/04/02 06:40:42;;;;;;;1.90;1.80;;;;;;;10.05;100.00;99036.99;5146931;56;1139090;-81
2024/04/02 06:46:03;;;;;;;2.97;2.53;;;;;;;10.05;100.00;99051.52;5126683;56;1138853;-81
2024/04/02 06:51:09;;;;;;;3.03;2.20;;;;;;;10.08;100.00;99047.26;5044462;56;1138956;-81
2024/04/02 06:56:14;;;;;;;2.42;1.90;;;;;;;10.13;100.00;99051.09;5063245;56;1138542;-81
2024/04/02 07:01:21;;;;;;;1.98;1.82;;;;;;;10.17;100.00;99056.41;5105466;56;1138953;-82
2024/04/02 07:06:27;;;;;;;2.77;2.03;;;;;;;10.23;100.00;99061.63;5126951;56;1138946;-81
2024/04/02 07:11:33;;;;;;;3.70;1.87;;;;;;;10.32;100.00;99062.02;5127182;56;1138881;-81
2024/04/02 07:16:39;;;;;;;3.13;2.03;;;;;;;10.39;100.00;99062.25;5146679;56;1138550;-81
2024/04/02 07:21:44;;;;;;;3.50;2.07;;;;;;;10.42;100.00;99073.81;5127389;56;1138600;-81
2024/04/02 07:26:50;;;;;;;3.10;2.43;;;;;;;10.42;100.00;99065.88;5128586;55;1138866;-80
2024/04/02 07:31:56;;;;;;;6.30;2.10;;;;;;;10.47;100.00;99067.09;5158750;56;1138644;-79
2024/04/02 07:37:02;;;;;;;4.43;2.20;;;;;;;10.50;100.00;99061.50;5137559;56;1138994;-80
2024/04/02 07:42:07;;;;;;;2.00;1.80;;;;;;;10.52;100.00;99041.03;5138277;56;1138913;-80
2024/04/02 07:47:13;;;;;;;2.08;1.77;;;;;;;10.45;100.00;99030.73;5078740;56;1138852;-80
2024/04/02 07:52:19;;;;;;;4.17;1.92;;;;;;;10.45;100.00;99030.73;5053991;56;1138621;-80
2024/04/02 07:57:25;;;;;;;7.93;4.73;;;;;;;10.51;100.00;99066.30;5052199;57;1138820;-80
2024/04/02 08:02:30;;;;;;;1.90;1.60;;;;;;;10.58;100.00;99064.19;5137532;56;1138677;-80
2024/04/02 08:07:36;;;;;;;1.23;1.10;;;;;;;10.70;100.00;99070.05;5158768;56;1138649;-79
2024/04/02 08:12:42;;;;;;;3.27;1.60;;;;;;;10.82;100.00;99082.55;5136968;56;1138810;-79
2024/04/02 08:17:48;;;;;;;2.80;1.63;;;;;;;10.98;100.00;99076.03;5054166;56;1138645;-79
2024/04/02 08:22:54;;;;;;;4.00;2.77;;;;;;;11.12;100.00;99075.94;5074084;56;1138858;-79
2024/04/02 08:28:00;;;;;;;3.73;1.80;;;;;;;11.27;100.00;99069.06;5055168;56;1138821;-79
2024/04/02 08:33:06;;;;;;;1.37;1.27;;;;;;;11.53;100.00;99075.61;5125605;56;1138746;-79
2024/04/02 08:38:12;;;;;;;5.05;2.22;;;;;;;11.73;100.00;99062.94;5153969;56;1139002;-79
2024/04/02 08:43:18;;;;;;;2.35;1.47;;;;;;;11.83;100.00;99068.45;5142752;56;1138983;-79
2024/04/02 08:48:26;;;;;;;2.70;1.60;;;;;;;12.01;100.00;99079.41;5143107;56;1138840;-79
2024/04/02 08:53:34;;;;;;;1.90;1.80;;;;;;;12.22;100.00;99083.76;5143465;56;1138698;-79
2024/04/02 08:58:40;;;;;;;3.83;1.82;;;;;;;12.29;100.00;99087.39;5163344;56;1138814;-80
2024/04/02 09:03:47;;;;;;;4.20;1.67;;;;;;;12.17;100.00;99094.02;5142607;56;1138682;-79
2024/04/02 09:08:53;;;;;;;2.67;1.90;;;;;;;12.09;100.00;99094.81;5142691;56;1138690;-80
2024/04/02 09:14:05;;;;;;;3.37;1.90;;;;;;;12.04;100.00;99115.70;5077916;57;1138512;-79
2024/04/02 09:19:11;;;;;;;3.87;1.70;;;;;;;11.96;100.00;99119.14;5057402;57;1138797;-79
2024/04/02 09:24:17;;;;;;;2.37;1.40;;;;;;;11.92;100.00;99139.48;5057002;57;1138844;-80
2024/04/02 09:29:23;;;;;;;3.47;1.95;;;;;;;11.85;100.00;99149.08;5078101;57;1138883;-79
2024/04/02 09:34:31;;;;;;;2.43;1.60;;;;;;;11.72;100.00;99135.44;5044191;57;1138703;-79
2024/04/02 09:39:38;;;;;;;3.67;1.33;;;;;;;11.72;100.00;99135.44;5042688;56;1138857;-79
2024/04/02 09:44:47;;;;;;;2.98;1.95;;;;;;;11.73;100.00;99151.66;5107961;56;1139057;-79
2024/04/02 09:49:54;;;;;;;2.00;1.40;;;;;;;11.73;100.00;99160.94;5147512;56;1138781;-80
2024/04/02 09:55:02;;;;;;;3.90;1.30;;;;;;;11.73;100.00;99157.79;5045013;56;1138586;-79
2024/04/02 10:00:09;;;;;;;5.85;2.45;;;;;;;11.77;100.00;99149.87;5076649;56;1138935;-80
2024/04/02 10:05:24;;;;;;;3.35;1.80;;;;;;;11.78;100.00;99158.16;5048019;57;1138700;-79
2024/04/02 10:10:30;;;;;;;3.73;1.90;;;;;;;11.80;100.00;99156.17;5124628;56;1258936;-78
2024/04/02 10:15:36;;;;;;;7.57;2.20;;;;;;;11.82;100.00;99168.77;5078809;56;1138642;-81
2024/04/02 10:20:42;;;;;;;1.80;1.70;;;;;;;11.87;100.00;99166.98;5125701;56;1138760;-81
2024/04/02 10:25:49;;;;;;;4.00;1.70;;;;;;;11.89;100.00;99176.92;5146830;56;1138809;-81
2024/04/02 10:30:54;;;;;;;2.13;1.33;;;;;;;11.90;100.00;99183.39;5127239;55;1138718;-81
2024/04/02 10:36:02;;;;;;;4.97;1.97;;;;;;;11.93;100.00;99184.37;5071299;56;1138602;-81
2024/04/02 10:41:09;;;;;;;2.98;1.65;;;;;;;11.87;100.00;99184.20;5093097;57;1138725;-82
2024/04/02 10:46:16;;;;;;;2.75;1.45;;;;;;;11.84;100.00;99190.64;5051832;57;1138756;-81
2024/04/02 10:51:21;;;;;;;6.67;1.60;;;;;;;12.03;100.00;99196.18;5077223;56;1138794;-81
2024/04/02 10:56:30;;;;;;;1.13;0.90;;;;;;;12.35;100.00;99194.12;5163038;56;1138552;-81
2024/04/02 11:01:36;;;;;;;1.03;1.00;;;;;;;12.53;100.00;99178.05;5071951;56;1138743;-82
2024/04/02 11:06:42;;;;;;;3.35;1.30;;;;;;;12.58;100.00;99186.34;5058202;56;1139055;-81
2024/04/02 11:11:47;;;;;;;2.63;1.17;;;;;;;12.63;100.00;99189.34;5041202;56;1138575;-81
2024/04/02 11:16:53;;;;;;;4.83;1.10;;;;;;;12.61;98.23;99197.47;5056410;56;1138670;-81
2024/04/02 11:27:26;;;;;;;1.13;0.90;;;;;;;12.54;96.62;99202.25;5078411;56;1136643;-81
2024/04/02 11:32:32;;;;;;;1.63;0.70;;;;;;;12.43;97.27;99217.98;5058052;57;1136835;-81
2024/04/02 11:37:38;;;;;;;2.30;1.13;;;;;;;12.41;96.46;99217.81;5118274;56;1136673;-80
2024/04/02 11:42:45;;;;;;;1.60;0.75;;;;;;;12.51;98.14;99214.04;5141338;56;1136629;-80
2024/04/02 11:47:52;;;;;;;1.73;1.10;;;;;;;12.71;94.32;99213.71;5160742;56;1136514;-80
2024/04/02 11:52:58;;;;;;;4.63;0.73;;;;;;;12.82;94.41;99220.88;5092830;56;1136747;-80
2024/04/02 12:03:27;;;;;;;4.78;1.55;;;;;;;12.91;93.58;99217.22;5161816;56;1136830;-80
2024/04/02 12:08:33;;;;;;;1.87;1.03;;;;;;;13.18;94.03;99223.20;5141244;56;1136749;-80
2024/04/02 12:13:38;;;;;;;3.00;0.70;;;;;;;13.35;89.61;99212.41;5141536;56;1136713;-82
2024/04/02 12:18:44;;;;;;;12.20;3.57;;;;;;;13.45;92.85;99206.90;5161060;56;1136455;-80
2024/04/02 12:23:50;;;;;;;11.70;4.50;;;;;;;13.51;89.72;99205.41;5137153;56;1138835;-81
2024/04/02 12:28:56;;;;;;;8.33;1.27;;;;;;;13.37;90.51;99210.41;5056431;57;1138574;-81
2024/04/02 12:34:01;;;;;;;2.97;1.40;;;;;;;13.17;90.14;99226.36;5104750;55;1136409;-81
2024/04/02 12:39:07;;;;;;;3.20;1.37;;;;;;;13.00;91.55;99233.46;5044836;56;1136774;-80
2024/04/02 12:44:13;;;;;;;4.57;0.70;;;;;;;13.00;89.56;99215.37;5047214;57;1136794;-80
2024/04/02 12:49:18;;;;;;;2.20;1.10;;;;;;;13.04;89.99;99219.37;5020092;57;1136589;-79
2024/04/02 12:54:24;;;;;;;7.47;0.80;;;;;;;13.27;92.68;99215.09;5008507;57;1136770;-80
2024/04/02 12:59:30;;;;;;;6.53;1.40;;;;;;;13.59;86.33;99220.01;5056015;56;1136607;-80
2024/04/02 13:04:36;;;;;;;2.17;0.62;;;;;;;13.59;87.33;99221.34;5001484;57;1136615;-79
2024/04/02 13:09:42;;;;;;;3.50;0.70;;;;;;;13.49;84.06;99224.16;5001537;57;1136636;-80
2024/04/02 13:14:49;;;;;;;3.90;1.17;;;;;;;13.45;82.82;99227.31;5055405;57;1136763;-79
2024/04/02 13:19:56;;;;;;;2.53;0.87;;;;;;;13.44;84.39;99227.84;5044989;57;1137086;-79
2024/04/02 13:25:02;;;;;;;2.80;0.87;;;;;;;13.36;84.17;99220.70;4993290;58;1136532;-79
2024/04/02 13:30:09;;;;;;;2.87;1.47;;;;;;;13.29;85.13;99225.55;5022743;57;1136309;-79
2024/04/02 13:35:18;;;;;;;4.73;0.87;;;;;;;13.36;85.52;99223.86;4986821;57;1136906;-79
2024/04/02 13:40:22;;;;;;;13.25;3.85;;;;;;;13.52;85.48;99233.63;5070917;56;1136495;-79
2024/04/02 13:45:28;;;;;;;6.03;0.73;;;;;;;13.57;84.44;99237.44;5113275;56;1138639;-79
2024/04/02 13:50:34;;;;;;;5.17;0.90;;;;;;;13.49;83.51;99233.95;5104880;56;1136678;-80
2024/04/02 13:55:40;;;;;;;3.83;1.23;;;;;;;13.43;88.35;99235.98;5042569;57;1136729;-79
2024/04/02 14:00:46;;;;;;;2.73;0.80;;;;;;;13.25;88.66;99225.04;5097193;56;1136697;-80
2024/04/02 14:06:02;;;;;;;3.43;0.93;;;;;;;13.28;89.52;99235.33;5043785;56;1136849;-80
2024/04/02 14:11:17;;;;;;;2.03;0.90;;;;;;;13.30;89.24;99227.17;5042988;56;1136688;-79
2024/04/02 14:16:22;;;;;;;3.22;0.82;;;;;;;13.27;89.65;99233.67;5063568;55;1136685;-82
2024/04/02 14:21:28;;;;;;;4.60;0.77;;;;;;;13.29;90.68;99228.20;5041673;57;1136533;-83
2024/04/02 14:26:34;;;;;;;5.00;1.00;;;;;;;13.33;88.25;99223.69;5127270;56;1136662;-83
2024/04/02 14:31:40;;;;;;;3.80;1.00;;;;;;;13.41;85.74;99216.72;5041654;57;1136432;-84
2024/04/02 14:36:46;;;;;;;2.47;1.17;;;;;;;13.57;85.19;99217.52;5146952;56;1136711;-83
2024/04/02 14:41:52;;;;;;;2.77;1.50;;;;;;;13.72;84.64;99219.80;5046375;57;1136894;-82
2024/04/02 14:46:57;;;;;;;5.27;1.13;;;;;;;13.85;81.98;99226.40;5067596;56;1136484;-83
2024/04/02 14:52:03;;;;;;;5.40;1.43;;;;;;;13.86;83.51;99234.20;4989091;57;1136613;-83
2024/04/02 14:57:09;;;;;;;3.07;0.77;;;;;;;13.87;80.05;99233.20;5055868;57;1136750;-84
2024/04/02 15:02:17;;;;;;;4.03;1.10;;;;;;;13.84;79.40;99226.90;5055930;56;1136475;-85
2024/04/02 15:07:22;;;;;;;2.15;0.88;;;;;;;13.84;80.12;99231.39;5072516;56;1136755;-83
2024/04/02 15:12:28;;;;;;;0.75;0.68;;;;;;;13.74;75.57;99228.94;5057058;57;1136652;-84
2024/04/02 15:17:34;;;;;;;2.77;0.80;;;;;;;13.95;74.72;99231.01;4973586;58;1136545;-83
2024/04/02 15:22:39;;;;;;;3.05;0.60;;;;;;;14.27;79.92;99241.50;4973642;58;1136588;-83
2024/04/02 15:27:47;;;;;;;2.33;0.90;;;;;;;14.46;75.77;99238.95;4993347;58;1136805;-82
2024/04/02 15:32:53;;;;;;;5.03;1.10;;;;;;;14.31;75.82;99241.99;4974180;58;1136557;-82
2024/04/02 15:37:59;;;;;;;2.87;0.80;;;;;;;14.14;78.68;99239.91;4973797;58;1136829;-82
2024/04/02 15:43:04;;;;;;;8.40;5.20;;;;;;;14.31;80.93;99245.98;5057250;56;1136531;-84
2024/04/02 15:48:10;;;;;;;2.37;1.07;;;;;;;14.48;73.21;99236.95;5074231;56;1136762;-83
2024/04/02 15:53:16;;;;;;;3.13;0.90;;;;;;;14.48;73.21;99236.95;4941324;56;1136530;-84
2024/04/02 15:58:24;;;;;;;3.47;1.05;;;;;;;14.43;72.03;99246.77;5147832;56;1136495;-83
2024/04/02 16:03:29;;;;;;;2.15;1.00;;;;;;;14.11;73.16;99248.72;5120941;56;1136678;-84
2024/04/02 16:08:42;;;;;;;3.60;1.13;;;;;;;13.91;76.44;99259.75;5124046;56;1136728;-83
2024/04/02 16:13:44;;;;;;;4.13;1.13;;;;;;;13.72;77.22;99257.00;5126739;56;1136649;-83
2024/04/02 16:18:52;;;;;;;3.47;2.00;;;;;;;13.58;78.98;99264.84;5061815;57;1136766;-83
2024/04/02 16:23:57;;;;;;;2.40;0.83;;;;;;;13.48;81.15;99268.98;5129855;56;1136474;-83
2024/04/02 16:29:03;;;;;;;4.50;1.30;;;;;;;13.45;81.17;99265.33;5141314;56;1136457;-82
2024/04/02 16:34:09;;;;;;;3.33;1.00;;;;;;;13.47;81.55;99257.20;5160808;56;1136505;-82
2024/04/02 16:39:15;;;;;;;3.80;1.20;;;;;;;13.40;82.35;99265.52;5155163;55;1141144;-83
2024/04/02 16:44:21;;;;;;;1.98;0.90;;;;;;;13.31;82.44;99267.34;5112620;55;1136566;-83
2024/04/02 16:49:27;;;;;;;2.95;1.10;;;;;;;13.22;81.20;99265.20;5106742;56;1136722;-83
2024/04/02 16:54:33;;;;;;;1.80;1.02;;;;;;;13.21;81.73;99273.32;5054319;56;1136513;-83
2024/04/02 16:59:39;;;;;;;6.92;0.95;;;;;;;13.17;81.96;99269.33;5089311;56;1136543;-83
2024/04/02 17:04:44;;;;;;;1.50;1.07;;;;;;;12.99;81.82;99259.67;5155635;56;1136636;-83
2024/04/02 17:09:50;;;;;;;5.60;1.40;;;;;;;12.87;83.91;99277.41;5051744;56;1136760;-83
2024/04/02 17:14:57;;;;;;;3.03;0.90;;;;;;;12.72;85.26;99281.70;5048979;57;1136553;-82
2024/04/02 17:20:06;;;;;;;1.47;0.90;;;;;;;12.58;86.80;99295.09;5072238;56;1136913;-81
2024/04/02 17:25:12;;;;;;;4.37;0.90;;;;;;;12.46;88.75;99298.55;5053279;56;1136765;-82
2024/04/02 17:30:17;;;;;;;4.17;1.40;;;;;;;12.32;90.13;99299.99;5053534;56;1136760;-82
2024/04/02 17:35:24;;;;;;;1.22;0.85;;;;;;;12.16;91.02;99294.63;5074648;56;1136694;-83
2024/04/02 17:40:30;;;;;;;2.95;1.17;;;;;;;12.04;91.95;99307.82;5053058;57;1136855;-83
2024/04/02 17:45:36;;;;;;;1.03;0.87;;;;;;;11.95;93.17;99316.69;5053501;57;1136304;-85
2024/04/02 17:50:42;;;;;;;1.70;1.05;;;;;;;11.85;93.62;99312.01;5128286;56;1136406;-85
2024/04/02 17:55:47;;;;;;;0.73;0.73;;;;;;;11.78;94.48;99332.14;5158217;55;1136250;-84
2024/04/02 18:00:55;;;;;;;1.07;0.70;;;;;;;11.69;94.51;99317.17;5138271;56;1136372;-83
2024/04/02 18:06:03;;;;;;;1.03;0.87;;;;;;;11.52;95.50;99328.97;5081489;56;1136456;-83
2024/04/02 18:11:12;;;;;;;3.13;0.70;;;;;;;11.40;97.26;99340.79;5107514;56;1136736;-83
2024/04/02 18:16:21;;;;;;;3.03;0.87;;;;;;;11.25;99.54;99355.06;5072795;56;1136808;-83
2024/04/02 18:21:37;;;;;;;1.25;1.15;;;;;;;11.18;100.00;99363.73;5050144;56;1136495;-83
2024/04/02 18:26:39;;;;;;;1.42;1.17;;;;;;;11.13;100.00;99361.56;5054581;56;1138607;-81
2024/04/02 18:31:45;;;;;;;1.97;1.23;;;;;;;11.08;100.00;99359.85;5073877;56;1138816;-82
2024/04/02 18:36:52;;;;;;;0.90;0.90;;;;;;;11.00;100.00;99367.69;5103394;55;1138561;-82
2024/04/02 18:41:59;;;;;;;2.17;1.10;;;;;;;10.96;100.00;99363.70;5132451;55;1138605;-82
2024/04/02 18:47:06;;;;;;;1.67;1.30;;;;;;;10.96;100.00;99371.64;5146117;56;1138454;-82
2024/04/02 18:52:14;;;;;;;3.37;1.30;;;;;;;10.96;100.00;99394.13;5128343;55;1138871;-84
2024/04/02 18:57:20;;;;;;;2.27;1.10;;;;;;;10.96;100.00;99394.13;5040948;56;1138642;-83
2024/04/02 19:02:29;;;;;;;3.30;1.20;;;;;;;10.92;100.00;99372.42;5090802;56;1138646;-82
2024/04/02 19:07:35;;;;;;;4.03;1.30;;;;;;;10.84;100.00;99359.61;5101837;56;1138942;-81
2024/04/02 19:12:42;;;;;;;3.17;1.50;;;;;;;10.78;100.00;99365.48;5079693;56;1138899;-82
2024/04/02 19:17:47;;;;;;;2.93;1.43;;;;;;;10.70;100.00;99358.77;5102278;56;1138865;-82
2024/04/02 19:22:53;;;;;;;1.25;1.05;;;;;;;10.66;100.00;99360.89;5093491;56;1138850;-81
2024/04/02 19:27:59;;;;;;;5.43;1.40;;;;;;;10.58;100.00;99353.69;5048575;56;1138587;-82
2024/04/02 19:33:05;;;;;;;1.70;1.60;;;;;;;10.56;100.00;99355.64;5147131;56;1138598;-82
2024/04/02 19:38:10;;;;;;;3.30;1.67;;;;;;;10.51;100.00;99361.88;5126971;56;1138476;-82
2024/04/02 19:43:16;;;;;;;5.17;2.27;;;;;;;10.46;100.00;99361.48;5115762;56;1138945;-82
2024/04/02 19:48:23;;;;;;;4.13;1.87;;;;;;;10.45;100.00;99366.42;5101363;56;1138556;-83
2024/04/02 19:53:38;;;;;;;2.77;1.65;;;;;;;10.43;100.00;99363.09;5125992;56;1138620;-82
2024/04/02 19:58:42;;;;;;;2.77;2.17;;;;;;;10.44;100.00;99356.82;5038787;56;1138764;-82
2024/04/02 20:03:52;;;;;;;3.53;1.63;;;;;;;10.48;100.00;99347.63;5054449;57;1138776;-82
2024/04/02 20:08:59;;;;;;;5.90;1.93;;;;;;;10.51;100.00;99345.19;5063627;57;1138931;-81
2024/04/02 20:14:04;;;;;;;1.47;1.37;;;;;;;10.50;100.00;99349.64;5055217;56;1139161;-81
2024/04/02 20:19:10;;;;;;;2.40;1.37;;;;;;;10.50;100.00;99350.12;5055981;57;1138533;-81
2024/04/02 20:24:16;;;;;;;14.97;1.67;;;;;;;10.53;100.00;99341.42;5069259;57;1138703;-81
2024/04/02 20:29:22;;;;;;;4.23;2.03;;;;;;;10.54;100.00;99347.02;4974197;56;1146993;-82
2024/04/02 20:34:28;;;;;;;5.47;1.40;;;;;;;10.54;100.00;99343.58;5023199;56;1138898;-83
2024/04/02 20:39:34;;;;;;;2.80;1.95;;;;;;;10.50;100.00;99339.06;5056396;57;1138800;-82
2024/04/02 20:44:39;;;;;;;2.20;1.50;;;;;;;10.49;100.00;99333.44;5074121;57;1138418;-81
2024/04/02 20:49:46;;;;;;;2.10;1.67;;;;;;;10.35;100.00;99330.45;5052297;57;1138727;-81
2024/04/02 20:54:51;;;;;;;4.90;2.03;;;;;;;10.35;100.00;99330.45;5094968;56;1139066;-82
2024/04/02 20:59:57;;;;;;;2.97;1.60;;;;;;;10.37;100.00;99331.97;5156089;56;1138921;-81
2024/04/02 21:05:10;;;;;;;13.67;1.90;;;;;;;10.38;100.00;99328.84;5138780;56;1138939;-81
2024/04/02 21:10:10;;;;;;;2.80;1.77;;;;;;;10.36;100.00;99328.98;5138245;56;1140692;-82
2024/04/02 21:15:17;;;;;;;8.07;2.03;;;;;;;10.37;100.00;99331.97;5158449;56;1138828;-81
2024/04/02 21:20:26;;;;;;;5.10;2.10;;;;;;;10.40;100.00;99332.97;5138279;56;1138584;-82
2024/04/02 21:25:30;;;;;;;7.30;2.30;;;;;;;10.41;100.00;99333.81;5138677;56;1138700;-82
2024/04/02 21:30:36;;;;;;;4.03;2.52;;;;;;;10.36;100.00;99331.63;5088236;56;1138688;-82
2024/04/02 21:35:42;;;;;;;4.37;2.27;;;;;;;10.35;100.00;99331.77;5131911;56;1139178;-82
2024/04/02 21:41:04;;;;;;;3.37;2.50;;;;;;;10.33;100.00;99337.69;5086164;56;1138605;-82
2024/04/02 21:46:10;;;;;;;3.60;2.70;;;;;;;10.33;100.00;99331.08;5106559;56;1138868;-82
2024/04/02 21:51:17;;;;;;;6.23;2.50;;;;;;;10.29;100.00;99331.02;5156155;56;1138822;-82
2024/04/02 21:56:23;;;;;;;4.70;1.95;;;;;;;10.27;100.00;99328.52;5076609;56;1138899;-82
2024/04/02 22:01:29;;;;;;;3.75;2.33;;;;;;;10.27;100.00;99325.05;5110481;56;1138926;-82
2024/04/02 22:06:34;;;;;;;3.77;2.50;;;;;;;10.25;100.00;99337.08;5054904;56;1138723;-83
2024/04/02 22:11:41;;;;;;;5.13;2.40;;;;;;;10.20;100.00;99356.52;5063216;56;1138621;-83
2024/04/02 22:16:47;;;;;;;2.13;1.40;;;;;;;10.14;100.00;99359.21;5050626;56;1138751;-81
2024/04/02 22:21:52;;;;;;;4.87;1.35;;;;;;;10.05;100.00;99348.69;5127320;56;1138758;-82
2024/04/02 22:26:58;;;;;;;1.97;1.00;;;;;;;9.95;100.00;99354.47;5147439;56;1138785;-82
2024/04/02 22:32:04;;;;;;;1.33;1.23;;;;;;;9.88;100.00;99362.14;5127366;56;1136882;-83
2024/04/02 22:37:09;;;;;;;4.23;1.67;;;;;;;9.86;100.00;99362.77;5094106;56;1136593;-81
2024/04/02 22:42:15;;;;;;;2.83;1.40;;;;;;;9.84;100.00;99356.80;5063233;56;1136751;-82
2024/04/02 22:47:22;;;;;;;4.00;1.80;;;;;;;9.85;100.00;99355.34;5059755;56;1136838;-82
2024/04/02 22:52:28;;;;;;;7.58;2.40;;;;;;;9.87;100.00;99357.35;5045642;56;1136287;-82
2024/04/02 22:57:34;;;;;;;5.92;2.87;;;;;;;9.87;100.00;99349.92;5070589;56;1136491;-82
2024/04/02 23:02:39;;;;;;;4.10;2.12;;;;;;;9.90;100.00;99348.80;5066412;57;1136705;-81
2024/04/02 23:07:46;;;;;;;6.50;2.87;;;;;;;9.93;100.00;99343.24;5057843;57;1136924;-81
2024/04/02 23:12:52;;;;;;;3.07;2.43;;;;;;;9.92;100.00;99356.09;5061254;56;1136794;-81
2024/04/02 23:17:58;;;;;;;3.87;2.20;;;;;;;9.93;100.00;99345.88;5163495;56;1137212;-81
2024/04/02 23:23:04;;;;;;;7.93;4.10;;;;;;;9.86;100.00;99343.80;5138028;56;1136889;-82
2024/04/02 23:28:09;;;;;;;6.20;2.40;;;;;;;9.83;100.00;99336.64;5133738;56;1136883;-82